AAO weather

Colonel James Jabara Airport
Wichita, Kansas, United States

Public forecast

Using degrees Fahrenheit for public forecast. Weather courtesy of forecast.io.

Current aviation weather report (METAR) for Colonel James Jabara Airport

Retrieved 2020/07/07 22:54 UTC (8 minutes ago):

KAAO 072254Z AUTO 16009KT 10SM CLR 34/19 A2990 RMK AO2 SLP110 T03390189

Closest aviation forecast (TAF) to Colonel James Jabara Airport

Closest forecast is Mc Connell Air Force Base, 7.9 nm (14.6 km) SSW. Retrieved 2020/07/07 18:03 UTC (5 hours ago):

TAF KIAB 071800Z 0718/0824 17010KT 9999 SCT050 QNH2986INS BECMG 0801/0802 18007KT 9999 FEW210 QNH2983INS BECMG 0815/0816 18010G15KT 9999 SKC QNH2981INS BECMG 0820/0821 16010G15KT 9999 SKC QNH2975INS TX35/0822Z TN22/0812Z